Time;durP1;ratioP1;P1;durP2;ratioP2;P2;SDS_P1;SDS_P2;PMS_P1;PMS_P2;Temp;Humidity;BMP_temperature;BMP_pressure;BME280_temperature;BME280_humidity;BME280_pressure;Samples;Min_cycle;Max_cycle;Signal;HPM_P1;HPM_P2
2021/03/24 00:02:10;;;;;;;3.53;1.25;;;;;;;;;;4965731;28;20058;-56
2021/03/24 00:04:36;;;;;;;5.30;1.50;;;;;;;;;;4966208;28;22000;-56
2021/03/24 00:07:02;;;;;;;5.57;1.45;;;;;;;;;;4964279;28;20035;-57
2021/03/24 00:09:28;;;;;;;4.45;1.60;;;;;;;;;;4962965;28;20054;-56
2021/03/24 00:11:54;;;;;;;5.43;1.70;;;;;;;;;;4963534;28;20042;-54
2021/03/24 00:14:20;;;;;;;5.72;1.88;;;;;;;;;;4963283;28;20145;-56
2021/03/24 00:16:45;;;;;;;8.93;2.00;;;;;;;;;;4963858;28;20039;-55
2021/03/24 00:19:11;;;;;;;5.90;2.42;;;;;;;;;;4992437;28;20152;-55
2021/03/24 00:21:37;;;;;;;4.68;2.03;;;;;;;;;;4965330;28;20053;-55
2021/03/24 00:24:04;;;;;;;6.60;2.20;;;;;;;;;;4964452;28;20090;-56
2021/03/24 00:26:30;;;;;;;6.70;2.30;;;;;;;;;;4963933;28;20118;-54
2021/03/24 00:28:56;;;;;;;4.03;2.10;;;;;;;;;;4965984;28;20532;-54
2021/03/24 00:31:22;;;;;;;10.43;2.50;;;;;;;;;;4965229;28;20038;-56
2021/03/24 00:33:47;;;;;;;6.38;2.50;;;;;;;;;;4970650;28;20117;-55
2021/03/24 00:36:13;;;;;;;5.60;2.33;;;;;;;;;;4964109;28;20042;-54
2021/03/24 00:38:39;;;;;;;5.85;2.67;;;;;;;;;;4963183;28;20158;-56
2021/03/24 00:41:06;;;;;;;11.13;2.90;;;;;;;;;;4965029;28;20637;-56
2021/03/24 00:43:32;;;;;;;7.72;2.60;;;;;;;;;;4963869;28;20986;-55
2021/03/24 00:45:58;;;;;;;5.85;2.88;;;;;;;;;;4965130;28;20042;-56
2021/03/24 00:48:28;;;;;;;12.68;2.80;;;;;;;;;;4961596;28;20046;-55
2021/03/24 00:50:55;;;;;;;8.63;3.50;;;;;;;;;;4958348;28;20046;-57
2021/03/24 00:53:21;;;;;;;5.97;2.95;;;;;;;;;;4959352;28;20177;-56
2021/03/24 00:55:47;;;;;;;6.70;2.85;;;;;;;;;;4962261;28;20929;-56
2021/03/24 00:58:13;;;;;;;8.35;2.92;;;;;;;;;;4960043;28;20054;-56
2021/03/24 01:00:40;;;;;;;5.72;2.60;;;;;;;;;;4961220;28;20047;-55
2021/03/24 01:03:06;;;;;;;6.82;2.70;;;;;;;;;;4961191;28;20065;-56
2021/03/24 01:05:32;;;;;;;8.52;2.85;;;;;;;;;;4961412;28;20502;-57
2021/03/24 01:08:07;;;;;;;10.85;4.40;;;;;;;;;;4960107;28;20050;-56
2021/03/24 01:10:34;;;;;;;7.00;3.00;;;;;;;;;;4991769;28;20041;-54
2021/03/24 01:13:00;;;;;;;8.10;3.03;;;;;;;;;;4959719;28;20043;-57
2021/03/24 01:15:26;;;;;;;7.55;2.70;;;;;;;;;;4961020;28;20042;-56
2021/03/24 01:17:53;;;;;;;4.97;2.70;;;;;;;;;;4964518;28;20057;-57
2021/03/24 01:20:20;;;;;;;5.90;2.72;;;;;;;;;;4961234;28;20035;-53
2021/03/24 01:22:46;;;;;;;7.78;2.53;;;;;;;;;;4963147;28;20090;-54
2021/03/24 01:25:12;;;;;;;9.77;3.08;;;;;;;;;;4963105;28;20552;-57
2021/03/24 01:27:38;;;;;;;6.22;3.00;;;;;;;;;;4961100;28;20047;-57
2021/03/24 01:30:05;;;;;;;4.75;2.80;;;;;;;;;;4962078;28;20034;-56
2021/03/24 01:32:31;;;;;;;7.55;3.17;;;;;;;;;;4962113;28;20065;-54
2021/03/24 01:34:57;;;;;;;7.47;2.97;;;;;;;;;;4960198;28;20509;-57
2021/03/24 01:37:23;;;;;;;8.52;3.15;;;;;;;;;;4960285;28;20050;-56
2021/03/24 01:39:49;;;;;;;6.25;2.92;;;;;;;;;;4961901;28;20112;-57
2021/03/24 01:42:15;;;;;;;6.07;3.55;;;;;;;;;;4961511;28;20042;-57
2021/03/24 01:44:59;;;;;;;8.88;3.20;;;;;;;;;;4992660;28;20066;-56
2021/03/24 01:47:25;;;;;;;4.75;2.70;;;;;;;;;;4960458;28;20053;-57
2021/03/24 01:49:50;;;;;;;6.15;2.85;;;;;;;;;;4975708;28;20035;-55
2021/03/24 01:52:17;;;;;;;8.20;3.33;;;;;;;;;;4961402;28;20043;-57
2021/03/24 01:54:43;;;;;;;8.43;3.40;;;;;;;;;;4962753;28;20550;-55
2021/03/24 01:57:27;;;;;;;8.27;3.25;;;;;;;;;;4958353;28;20118;-56
2021/03/24 01:59:55;;;;;;;9.57;3.40;;;;;;;;;;4953724;28;20084;-56
2021/03/24 02:02:26;;;;;;;9.07;3.78;;;;;;;;;;4961890;28;20121;-58
2021/03/24 02:04:52;;;;;;;7.45;3.83;;;;;;;;;;4961758;28;20084;-57
2021/03/24 02:07:21;;;;;;;8.52;3.40;;;;;;;;;;4974816;28;20034;-55
2021/03/24 02:09:47;;;;;;;7.25;4.03;;;;;;;;;;4962002;28;20099;-58
2021/03/24 02:12:19;;;;;;;8.95;3.90;;;;;;;;;;4961682;28;20034;-57
2021/03/24 02:14:48;;;;;;;7.40;3.40;;;;;;;;;;4960843;28;20042;-57
2021/03/24 02:17:15;;;;;;;9.25;3.80;;;;;;;;;;4962355;28;20050;-57
2021/03/24 02:19:49;;;;;;;6.57;3.80;;;;;;;;;;4961917;28;20046;-59
2021/03/24 02:22:17;;;;;;;13.52;3.75;;;;;;;;;;4962519;28;20057;-57
2021/03/24 02:24:52;;;;;;;9.32;3.40;;;;;;;;;;4960486;28;20121;-57
2021/03/24 02:27:20;;;;;;;5.97;3.40;;;;;;;;;;4959184;28;20095;-57
2021/03/24 02:29:54;;;;;;;10.52;4.25;;;;;;;;;;4959668;28;20031;-56
2021/03/24 02:32:24;;;;;;;8.63;3.60;;;;;;;;;;4960450;28;20050;-56
2021/03/24 02:34:51;;;;;;;14.88;3.90;;;;;;;;;;4960321;28;20039;-57
2021/03/24 02:37:18;;;;;;;13.77;3.78;;;;;;;;;;4960329;28;21097;-57
2021/03/24 02:39:45;;;;;;;10.30;3.42;;;;;;;;;;4958608;28;20101;-55
2021/03/24 02:42:12;;;;;;;10.82;3.28;;;;;;;;;;4963740;28;20051;-57
2021/03/24 02:44:39;;;;;;;13.13;3.70;;;;;;;;;;4962263;28;20039;-56
2021/03/24 02:47:05;;;;;;;9.55;3.85;;;;;;;;;;4964978;28;20039;-56
2021/03/24 02:49:31;;;;;;;13.00;4.15;;;;;;;;;;4963570;28;20466;-58
2021/03/24 02:51:57;;;;;;;15.82;4.00;;;;;;;;;;4965741;28;20087;-57
2021/03/24 02:54:26;;;;;;;9.07;3.92;;;;;;;;;;4955923;28;20058;-57
2021/03/24 02:56:52;;;;;;;13.07;4.05;;;;;;;;;;4992854;28;20534;-56
2021/03/24 02:59:18;;;;;;;10.90;3.90;;;;;;;;;;4963782;28;20055;-55
2021/03/24 03:01:54;;;;;;;11.13;4.13;;;;;;;;;;4963930;28;20531;-57
2021/03/24 03:04:31;;;;;;;13.25;3.80;;;;;;;;;;4964101;28;20039;-57
2021/03/24 03:06:59;;;;;;;13.75;4.13;;;;;;;;;;4964052;28;20043;-56
2021/03/24 03:09:54;;;;;;;10.52;4.05;;;;;;;;;;4963482;28;20486;-56
2021/03/24 03:12:32;;;;;;;10.77;3.97;;;;;;;;;;4954964;28;20371;-57
2021/03/24 03:14:59;;;;;;;11.18;3.90;;;;;;;;;;4965254;28;20042;-56
2021/03/24 03:17:29;;;;;;;14.65;4.20;;;;;;;;;;4964497;28;20058;-56
2021/03/24 03:20:18;;;;;;;8.35;4.07;;;;;;;;;;4961797;28;20475;-56
2021/03/24 03:23:05;;;;;;;12.40;4.70;;;;;;;;;;4946153;28;20042;-56
2021/03/24 03:25:35;;;;;;;7.22;3.90;;;;;;;;;;4974980;28;20100;-56
2021/03/24 03:28:03;;;;;;;8.57;3.90;;;;;;;;;;4973407;28;20046;-54
2021/03/24 03:30:31;;;;;;;9.68;4.10;;;;;;;;;;4962078;28;20038;-57
2021/03/24 03:32:59;;;;;;;10.40;3.83;;;;;;;;;;4964307;28;20635;-56
2021/03/24 03:35:25;;;;;;;11.50;4.40;;;;;;;;;;4962794;28;20181;-53
2021/03/24 03:37:55;;;;;;;10.90;3.83;;;;;;;;;;4964926;28;20053;-55
2021/03/24 03:40:23;;;;;;;15.23;4.22;;;;;;;;;;4962588;28;20054;-56
2021/03/24 03:42:49;;;;;;;13.02;4.43;;;;;;;;;;4963489;28;20695;-56
2021/03/24 03:45:15;;;;;;;11.55;4.20;;;;;;;;;;4963163;28;20047;-54
2021/03/24 03:47:42;;;;;;;13.10;4.93;;;;;;;;;;4963818;28;20046;-57
2021/03/24 03:50:09;;;;;;;14.23;4.47;;;;;;;;;;4963036;28;20104;-56
2021/03/24 03:52:43;;;;;;;14.73;4.93;;;;;;;;;;4962198;28;20042;-55
2021/03/24 03:55:15;;;;;;;12.30;4.57;;;;;;;;;;4961272;28;20055;-56
2021/03/24 03:57:46;;;;;;;16.95;4.82;;;;;;;;;;4962233;28;20452;-53
2021/03/24 04:00:16;;;;;;;12.90;4.10;;;;;;;;;;4964852;28;21009;-55
2021/03/24 04:02:47;;;;;;;8.70;4.40;;;;;;;;;;4963182;28;20038;-54
2021/03/24 04:05:17;;;;;;;9.23;4.45;;;;;;;;;;4963309;28;20046;-54
2021/03/24 04:07:44;;;;;;;13.43;4.47;;;;;;;;;;4961776;28;20052;-55
2021/03/24 04:10:11;;;;;;;10.50;4.15;;;;;;;;;;4964120;28;20061;-54
2021/03/24 04:12:38;;;;;;;9.75;4.22;;;;;;;;;;4961575;28;20057;-56
2021/03/24 04:15:05;;;;;;;15.57;4.50;;;;;;;;;;4964177;28;20122;-57
2021/03/24 04:17:35;;;;;;;11.77;4.53;;;;;;;;;;4962989;28;20107;-57
2021/03/24 04:20:02;;;;;;;14.23;4.53;;;;;;;;;;4963275;28;20039;-55
2021/03/24 04:22:30;;;;;;;11.60;4.85;;;;;;;;;;4962906;28;20046;-55
2021/03/24 04:24:57;;;;;;;10.43;4.85;;;;;;;;;;4962480;28;20456;-56
2021/03/24 04:27:25;;;;;;;12.18;4.57;;;;;;;;;;4963100;28;20051;-56
2021/03/24 04:30:00;;;;;;;13.98;4.53;;;;;;;;;;4961663;28;20399;-56
2021/03/24 04:32:26;;;;;;;12.60;4.60;;;;;;;;;;4962501;28;20054;-57
2021/03/24 04:34:52;;;;;;;13.60;4.50;;;;;;;;;;4962270;28;20042;-57
2021/03/24 04:37:32;;;;;;;8.43;3.50;;;;;;;;;;4960914;28;20051;-56
2021/03/24 04:40:01;;;;;;;12.52;3.00;;;;;;;;;;4960048;28;20046;-57
2021/03/24 04:42:34;;;;;;;12.32;3.72;;;;;;;;;;4960807;28;20042;-57
2021/03/24 04:45:04;;;;;;;12.43;2.90;;;;;;;;;;4963524;28;20045;-57
2021/03/24 04:47:32;;;;;;;6.85;3.45;;;;;;;;;;4963240;28;20035;-56
2021/03/24 04:50:08;;;;;;;10.88;3.13;;;;;;;;;;4962562;28;20849;-58
2021/03/24 04:52:36;;;;;;;8.32;3.83;;;;;;;;;;4966617;28;20042;-57
2021/03/24 04:55:09;;;;;;;12.75;3.00;;;;;;;;;;4962854;28;20559;-57
2021/03/24 04:57:35;;;;;;;10.02;3.05;;;;;;;;;;4961208;28;20593;-56
2021/03/24 05:00:05;;;;;;;6.40;2.30;;;;;;;;;;4964041;28;20396;-56
2021/03/24 05:02:32;;;;;;;5.55;2.00;;;;;;;;;;4963307;28;20134;-56
2021/03/24 05:04:58;;;;;;;7.25;1.83;;;;;;;;;;4960080;28;20054;-54
2021/03/24 05:07:44;;;;;;;5.35;2.10;;;;;;;;;;4963469;28;20053;-57
2021/03/24 05:10:14;;;;;;;9.02;2.90;;;;;;;;;;4961729;28;20047;-56
2021/03/24 05:12:43;;;;;;;7.20;2.95;;;;;;;;;;4953929;28;20042;-54
2021/03/24 05:15:21;;;;;;;6.63;2.50;;;;;;;;;;4960505;28;20053;-55
2021/03/24 05:17:48;;;;;;;6.03;2.22;;;;;;;;;;4958413;28;20058;-53
2021/03/24 05:20:32;;;;;;;6.40;1.85;;;;;;;;;;4961451;28;20042;-54
2021/03/24 05:22:58;;;;;;;6.97;1.80;;;;;;;;;;4960516;28;20047;-55
2021/03/24 05:25:24;;;;;;;5.07;1.77;;;;;;;;;;4962146;28;20074;-56
2021/03/24 05:27:54;;;;;;;6.00;1.52;;;;;;;;;;4962881;28;20892;-56
2021/03/24 05:30:30;;;;;;;4.32;1.40;;;;;;;;;;4963177;28;20578;-56
2021/03/24 05:33:05;;;;;;;4.78;1.20;;;;;;;;;;4963021;28;20053;-55
2021/03/24 05:35:51;;;;;;;4.75;1.88;;;;;;;;;;4961431;28;20065;-56
2021/03/24 05:38:23;;;;;;;4.57;1.13;;;;;;;;;;4958981;28;20055;-55
2021/03/24 05:40:55;;;;;;;8.27;1.17;;;;;;;;;;4963346;28;20366;-55
2021/03/24 05:43:21;;;;;;;3.17;1.20;;;;;;;;;;4961084;28;20043;-56
2021/03/24 05:45:47;;;;;;;4.55;1.40;;;;;;;;;;4961041;28;20043;-56
2021/03/24 05:48:27;;;;;;;7.13;1.90;;;;;;;;;;4961204;28;20081;-55
2021/03/24 05:50:56;;;;;;;6.95;1.75;;;;;;;;;;4961470;28;20445;-57
2021/03/24 05:53:37;;;;;;;5.65;1.63;;;;;;;;;;4961461;28;20173;-57
2021/03/24 05:56:05;;;;;;;4.22;1.40;;;;;;;;;;4961754;28;20051;-57
2021/03/24 05:58:37;;;;;;;4.20;1.20;;;;;;;;;;4959904;28;20058;-56
2021/03/24 06:01:06;;;;;;;6.63;1.30;;;;;;;;;;4962057;28;20591;-55
2021/03/24 06:03:50;;;;;;;4.18;1.67;;;;;;;;;;4961585;28;20063;-56
2021/03/24 06:06:28;;;;;;;5.60;1.00;;;;;;;;;;4960580;28;20101;-54
2021/03/24 06:08:54;;;;;;;3.00;1.00;;;;;;;;;;4960989;28;20043;-56
2021/03/24 06:11:31;;;;;;;3.33;1.17;;;;;;;;;;4960700;28;20391;-53
2021/03/24 06:14:35;;;;;;;4.97;1.02;;;;;;;;;;4962884;28;20050;-55
2021/03/24 06:17:14;;;;;;;4.60;0.90;;;;;;;;;;4943284;28;20062;-54
2021/03/24 06:19:58;;;;;;;4.82;0.90;;;;;;;;;;4944194;28;20227;-53
2021/03/24 06:22:32;;;;;;;4.10;1.10;;;;;;;;;;4958035;28;20035;-53
2021/03/24 06:24:58;;;;;;;6.18;1.10;;;;;;;;;;4963195;28;20062;-54
2021/03/24 06:27:33;;;;;;;3.67;0.93;;;;;;;;;;4961231;28;20039;-53
2021/03/24 06:29:59;;;;;;;2.75;0.93;;;;;;;;;;4962107;28;20053;-55
2021/03/24 06:32:33;;;;;;;4.32;1.10;;;;;;;;;;4963018;28;20499;-54
2021/03/24 06:34:58;;;;;;;;;;;;;;;;;;4963310;28;20070;-55
2021/03/24 06:37:30;;;;;;;4.82;1.08;;;;;;;;;;4962760;28;20076;-55
2021/03/24 06:40:02;;;;;;;7.38;1.10;;;;;;;;;;4961191;28;20812;-55
2021/03/24 06:42:46;;;;;;;4.22;0.98;;;;;;;;;;4960082;28;20027;-55
2021/03/24 06:45:30;;;;;;;6.97;1.10;;;;;;;;;;4959827;28;20359;-56
2021/03/24 06:48:06;;;;;;;2.42;0.80;;;;;;;;;;4958494;28;20400;-55
2021/03/24 06:50:50;;;;;;;2.40;0.70;;;;;;;;;;4959210;28;20046;-55
2021/03/24 06:53:19;;;;;;;2.53;0.80;;;;;;;;;;4960676;28;20399;-55
2021/03/24 06:55:57;;;;;;;2.97;0.70;;;;;;;;;;4959310;28;20078;-53
2021/03/24 06:58:25;;;;;;;3.15;0.90;;;;;;;;;;4960983;28;20141;-54
2021/03/24 07:00:54;;;;;;;2.75;0.70;;;;;;;;;;4960963;28;20034;-54
2021/03/24 07:03:38;;;;;;;2.03;0.63;;;;;;;;;;4960320;28;20065;-53
2021/03/24 07:06:04;;;;;;;3.20;0.80;;;;;;;;;;4960971;28;20158;-57
2021/03/24 07:08:48;;;;;;;4.35;0.80;;;;;;;;;;4958641;28;20043;-57
2021/03/24 07:11:27;;;;;;;2.95;0.75;;;;;;;;;;4960818;28;20049;-56
2021/03/24 07:13:55;;;;;;;3.40;0.80;;;;;;;;;;4959539;28;20054;-56
2021/03/24 07:16:30;;;;;;;2.50;0.60;;;;;;;;;;4959471;28;20046;-56
2021/03/24 07:19:04;;;;;;;4.18;0.70;;;;;;;;;;4960531;28;20050;-57
2021/03/24 07:21:49;;;;;;;3.75;0.80;;;;;;;;;;4959695;28;20035;-56
2021/03/24 07:24:47;;;;;;;2.08;0.70;;;;;;;;;;4960984;28;20031;-54
2021/03/24 07:27:31;;;;;;;2.50;0.80;;;;;;;;;;4947157;28;20830;-57
2021/03/24 07:30:05;;;;;;;2.40;0.70;;;;;;;;;;4963440;28;20054;-56
2021/03/24 07:32:43;;;;;;;2.40;0.65;;;;;;;;;;4963180;28;20053;-56
2021/03/24 07:35:24;;;;;;;3.63;0.90;;;;;;;;;;4964139;28;20049;-57
2021/03/24 07:38:08;;;;;;;2.92;0.80;;;;;;;;;;4963013;28;20054;-56
2021/03/24 07:40:40;;;;;;;2.45;0.82;;;;;;;;;;4963197;28;20125;-53
2021/03/24 07:43:24;;;;;;;2.22;0.70;;;;;;;;;;4964630;28;20137;-54
2021/03/24 07:45:56;;;;;;;3.90;1.08;;;;;;;;;;4963166;28;20057;-57
2021/03/24 07:48:40;;;;;;;4.35;1.00;;;;;;;;;;4961905;28;20166;-56
2021/03/24 07:51:09;;;;;;;3.15;0.88;;;;;;;;;;4965390;28;20628;-56
2021/03/24 07:53:41;;;;;;;4.05;0.75;;;;;;;;;;4962550;28;20489;-56
2021/03/24 07:56:13;;;;;;;2.60;0.80;;;;;;;;;;4964090;28;20167;-57
2021/03/24 07:58:51;;;;;;;2.20;0.70;;;;;;;;;;4964591;28;20047;-56
2021/03/24 08:01:32;;;;;;;2.70;0.80;;;;;;;;;;4964300;28;20700;-55
2021/03/24 08:04:06;;;;;;;2.78;0.75;;;;;;;;;;4963052;28;20046;-53
2021/03/24 08:07:02;;;;;;;6.20;0.90;;;;;;;;;;4975345;28;20034;-57
2021/03/24 08:09:44;;;;;;;6.45;1.10;;;;;;;;;;4962996;28;20351;-55
2021/03/24 08:12:23;;;;;;;3.30;1.00;;;;;;;;;;4963681;28;20133;-56
2021/03/24 08:15:05;;;;;;;3.47;0.85;;;;;;;;;;4962410;28;20574;-56
2021/03/24 08:17:45;;;;;;;2.60;0.70;;;;;;;;;;4952975;28;20503;-56
2021/03/24 08:20:30;;;;;;;3.10;0.90;;;;;;;;;;4964394;28;20065;-55
2021/03/24 08:23:02;;;;;;;2.42;0.70;;;;;;;;;;4964315;28;20042;-56
2021/03/24 08:26:11;;;;;;;7.75;1.00;;;;;;;;;;4979415;28;20074;-56
2021/03/24 08:28:43;;;;;;;2.53;0.90;;;;;;;;;;4978409;28;20297;-56
2021/03/24 08:31:20;;;;;;;4.30;0.80;;;;;;;;;;4979413;28;20094;-57
2021/03/24 08:33:54;;;;;;;3.80;0.60;;;;;;;;;;4976800;28;20081;-53
2021/03/24 08:36:28;;;;;;;3.00;0.80;;;;;;;;;;4979594;28;20050;-56
2021/03/24 08:39:05;;;;;;;3.15;0.77;;;;;;;;;;4981777;28;20807;-57
2021/03/24 08:41:46;;;;;;;3.22;0.95;;;;;;;;;;4978386;28;20049;-57
2021/03/24 08:44:21;;;;;;;3.00;0.60;;;;;;;;;;4978961;28;20626;-56
2021/03/24 08:46:49;;;;;;;2.97;0.70;;;;;;;;;;4978541;28;20042;-54
2021/03/24 08:49:36;;;;;;;3.22;0.80;;;;;;;;;;4979013;28;20535;-56
2021/03/24 08:52:07;;;;;;;2.78;0.90;;;;;;;;;;4977870;28;20085;-57
2021/03/24 08:54:36;;;;;;;4.25;0.90;;;;;;;;;;4978094;28;20150;-54
2021/03/24 08:57:10;;;;;;;3.97;0.95;;;;;;;;;;4979477;28;20030;-56
2021/03/24 08:59:49;;;;;;;2.20;0.80;;;;;;;;;;4977795;28;20292;-57
2021/03/24 09:02:15;;;;;;;7.32;0.93;;;;;;;;;;4977252;28;20038;-54
2021/03/24 09:04:59;;;;;;;5.40;1.08;;;;;;;;;;4963948;28;20054;-54
2021/03/24 09:07:31;;;;;;;2.70;0.90;;;;;;;;;;4962151;28;20518;-56
2021/03/24 09:10:10;;;;;;;2.67;0.90;;;;;;;;;;4964844;28;20070;-56
2021/03/24 09:12:36;;;;;;;4.07;0.90;;;;;;;;;;4962252;28;20064;-55
2021/03/24 09:15:05;;;;;;;3.45;0.90;;;;;;;;;;4964687;28;20642;-54
2021/03/24 09:17:43;;;;;;;3.05;0.70;;;;;;;;;;4961266;28;20091;-56
2021/03/24 09:20:36;;;;;;;6.53;0.93;;;;;;;;;;4962202;28;20126;-57
2021/03/24 09:23:17;;;;;;;2.55;0.63;;;;;;;;;;4962927;28;20043;-54
2021/03/24 09:26:09;;;;;;;3.80;0.80;;;;;;;;;;4963704;28;20043;-55
2021/03/24 09:28:46;;;;;;;3.75;0.80;;;;;;;;;;4956924;28;20053;-56
2021/03/24 09:31:27;;;;;;;3.85;0.90;;;;;;;;;;4962953;28;20038;-55
2021/03/24 09:33:59;;;;;;;3.05;0.77;;;;;;;;;;4963567;28;20178;-56
2021/03/24 09:36:28;;;;;;;2.67;0.60;;;;;;;;;;4962241;28;20046;-57
2021/03/24 09:38:55;;;;;;;6.00;0.82;;;;;;;;;;4960705;28;20054;-56
2021/03/24 09:41:24;;;;;;;3.42;0.63;;;;;;;;;;4961297;28;20046;-55
2021/03/24 09:43:52;;;;;;;3.95;0.82;;;;;;;;;;4962983;28;20043;-54
2021/03/24 09:46:18;;;;;;;4.28;0.88;;;;;;;;;;4961703;28;20031;-55
2021/03/24 09:48:46;;;;;;;2.90;0.77;;;;;;;;;;4960103;28;20039;-54
2021/03/24 09:51:16;;;;;;;5.40;0.70;;;;;;;;;;4961099;28;20384;-54
2021/03/24 09:53:42;;;;;;;4.65;0.82;;;;;;;;;;4962349;28;20034;-53
2021/03/24 09:56:13;;;;;;;5.35;0.90;;;;;;;;;;4962937;28;20047;-52
2021/03/24 09:58:45;;;;;;;3.58;0.80;;;;;;;;;;4961800;28;20061;-53
2021/03/24 10:01:19;;;;;;;2.70;0.80;;;;;;;;;;4960523;28;20611;-56
2021/03/24 10:04:03;;;;;;;8.07;1.00;;;;;;;;;;4963021;28;20043;-55
2021/03/24 10:06:31;;;;;;;3.75;0.68;;;;;;;;;;4962145;28;20125;-55
2021/03/24 10:09:03;;;;;;;2.65;0.73;;;;;;;;;;4961011;28;20437;-51
2021/03/24 10:11:30;;;;;;;2.78;0.88;;;;;;;;;;4960752;28;20042;-56
2021/03/24 10:14:08;;;;;;;2.78;0.70;;;;;;;;;;4963206;28;20062;-56
2021/03/24 10:16:35;;;;;;;2.95;0.85;;;;;;;;;;4961166;28;20113;-57
2021/03/24 10:19:02;;;;;;;6.43;0.90;;;;;;;;;;4961402;28;20209;-55
2021/03/24 10:21:37;;;;;;;3.10;0.85;;;;;;;;;;4963302;28;20038;-54
2021/03/24 10:24:09;;;;;;;4.40;0.90;;;;;;;;;;4961318;28;20602;-56
2021/03/24 10:26:45;;;;;;;4.30;1.10;;;;;;;;;;4960019;28;20047;-57
2021/03/24 10:29:15;;;;;;;3.53;0.90;;;;;;;;;;4961972;28;20420;-57
2021/03/24 10:31:49;;;;;;;3.97;0.82;;;;;;;;;;4961215;28;20047;-56
2021/03/24 10:34:32;;;;;;;2.90;0.80;;;;;;;;;;4961887;28;20137;-56
2021/03/24 10:37:20;;;;;;;3.00;0.80;;;;;;;;;;4959290;28;20049;-54
2021/03/24 10:39:54;;;;;;;6.40;0.90;;;;;;;;;;4963399;28;20167;-53
2021/03/24 10:42:32;;;;;;;4.05;1.17;;;;;;;;;;4962249;28;20035;-56
2021/03/24 10:45:01;;;;;;;4.65;0.93;;;;;;;;;;4965148;28;20047;-56
2021/03/24 10:47:36;;;;;;;4.45;1.00;;;;;;;;;;4991833;28;20038;-58
2021/03/24 10:50:05;;;;;;;2.92;0.90;;;;;;;;;;4961902;28;20046;-55
2021/03/24 10:52:39;;;;;;;3.53;0.90;;;;;;;;;;4960533;28;20125;-56
2021/03/24 10:55:10;;;;;;;4.63;1.15;;;;;;;;;;4992521;28;20042;-53
2021/03/24 10:57:45;;;;;;;5.32;1.17;;;;;;;;;;4959889;28;20046;-56
2021/03/24 11:00:14;;;;;;;7.03;1.15;;;;;;;;;;4962194;28;20082;-56
2021/03/24 11:02:46;;;;;;;2.60;0.70;;;;;;;;;;4963685;28;20058;-56
2021/03/24 11:05:14;;;;;;;3.30;1.00;;;;;;;;;;4966397;28;20065;-57
2021/03/24 11:08:00;;;;;;;3.75;1.10;;;;;;;;;;4964402;28;22104;-57
2021/03/24 11:10:26;;;;;;;3.35;0.90;;;;;;;;;;4966854;28;20531;-58
2021/03/24 11:12:56;;;;;;;4.93;0.80;;;;;;;;;;4967413;28;20077;-56
2021/03/24 11:15:37;;;;;;;4.22;0.88;;;;;;;;;;4964152;28;20035;-56
2021/03/24 11:18:07;;;;;;;4.15;0.90;;;;;;;;;;4963653;28;20128;-56
2021/03/24 11:20:47;;;;;;;2.50;0.80;;;;;;;;;;4964295;28;20074;-56
2021/03/24 11:23:15;;;;;;;2.70;1.00;;;;;;;;;;4965275;28;20579;-57
2021/03/24 11:25:48;;;;;;;2.40;0.73;;;;;;;;;;4963581;28;20034;-58
2021/03/24 11:28:22;;;;;;;3.70;0.63;;;;;;;;;;4965102;28;20711;-56
2021/03/24 11:30:50;;;;;;;2.95;1.02;;;;;;;;;;4964859;28;20088;-54
2021/03/24 11:33:16;;;;;;;3.28;1.10;;;;;;;;;;4964106;28;20552;-56
2021/03/24 11:35:55;;;;;;;5.03;0.80;;;;;;;;;;4963858;28;20049;-55
2021/03/24 11:38:26;;;;;;;2.70;0.80;;;;;;;;;;4964568;28;20064;-53
2021/03/24 11:40:57;;;;;;;3.10;0.80;;;;;;;;;;4963736;28;20077;-55
2021/03/24 11:43:25;;;;;;;4.55;0.73;;;;;;;;;;4963502;28;20085;-56
2021/03/24 11:46:10;;;;;;;3.13;0.90;;;;;;;;;;4963690;28;20031;-53
2021/03/24 11:48:49;;;;;;;10.35;1.20;;;;;;;;;;4961234;28;20038;-57
2021/03/24 11:51:18;;;;;;;7.20;1.00;;;;;;;;;;4964644;28;20065;-57
2021/03/24 11:53:59;;;;;;;3.75;1.00;;;;;;;;;;4966214;28;20039;-57
2021/03/24 11:56:45;;;;;;;3.55;0.90;;;;;;;;;;4963285;28;20046;-55
2021/03/24 11:59:11;;;;;;;2.22;0.80;;;;;;;;;;4963406;28;20531;-56
2021/03/24 12:01:52;;;;;;;4.00;0.82;;;;;;;;;;4963190;28;20030;-53
2021/03/24 12:04:21;;;;;;;3.38;1.13;;;;;;;;;;4962123;28;20046;-55
2021/03/24 12:07:06;;;;;;;3.60;0.70;;;;;;;;;;4963507;28;20047;-56
2021/03/24 12:09:34;;;;;;;3.40;0.80;;;;;;;;;;4964064;28;20062;-56
2021/03/24 12:12:06;;;;;;;3.08;0.70;;;;;;;;;;4962880;28;20393;-52
2021/03/24 12:14:32;;;;;;;3.47;0.80;;;;;;;;;;4963123;28;20091;-56
2021/03/24 12:17:00;;;;;;;2.90;0.70;;;;;;;;;;4962966;28;20034;-57
2021/03/24 12:19:26;;;;;;;3.58;0.73;;;;;;;;;;4963188;28;20626;-55
2021/03/24 12:21:55;;;;;;;5.25;0.82;;;;;;;;;;4962260;28;20035;-55
2021/03/24 12:24:41;;;;;;;2.30;0.70;;;;;;;;;;4963108;28;20039;-55
2021/03/24 12:27:15;;;;;;;5.72;0.90;;;;;;;;;;4962034;28;20042;-56
2021/03/24 12:30:01;;;;;;;9.73;1.00;;;;;;;;;;4962697;28;20162;-56
2021/03/24 12:32:28;;;;;;;4.95;0.80;;;;;;;;;;4963437;28;20038;-54
2021/03/24 12:34:55;;;;;;;2.55;0.60;;;;;;;;;;4964456;28;20035;-52
2021/03/24 12:37:23;;;;;;;2.38;0.70;;;;;;;;;;4962013;28;20852;-55
2021/03/24 12:39:51;;;;;;;2.97;0.63;;;;;;;;;;4962324;28;20069;-55
2021/03/24 12:42:17;;;;;;;6.85;0.82;;;;;;;;;;4963378;28;20973;-55
2021/03/24 12:44:43;;;;;;;5.85;1.13;;;;;;;;;;4963121;28;20078;-54
2021/03/24 12:47:24;;;;;;;5.50;0.80;;;;;;;;;;4963786;28;20045;-55
2021/03/24 12:50:04;;;;;;;9.90;1.30;;;;;;;;;;4962875;28;20081;-54
2021/03/24 12:52:35;;;;;;;2.95;0.80;;;;;;;;;;4961689;28;20509;-56
2021/03/24 12:55:01;;;;;;;6.97;0.90;;;;;;;;;;4962416;28;20496;-56
2021/03/24 12:57:27;;;;;;;6.55;1.00;;;;;;;;;;4962081;28;20049;-57
2021/03/24 13:00:02;;;;;;;6.40;1.00;;;;;;;;;;4962649;28;20046;-52
2021/03/24 13:02:28;;;;;;;6.15;1.08;;;;;;;;;;4964442;28;20045;-55
2021/03/24 13:05:12;;;;;;;6.57;1.08;;;;;;;;;;4961471;28;20611;-54
2021/03/24 13:08:01;;;;;;;13.20;1.30;;;;;;;;;;4976655;28;20043;-54
2021/03/24 13:10:42;;;;;;;8.68;0.90;;;;;;;;;;4956177;28;20049;-55
2021/03/24 13:13:33;;;;;;;21.73;1.88;;;;;;;;;;4963782;28;20051;-56
2021/03/24 13:16:04;;;;;;;14.63;1.50;;;;;;;;;;4959831;28;20747;-56
2021/03/24 13:18:51;;;;;;;8.25;1.15;;;;;;;;;;4962281;28;20038;-55
2021/03/24 13:21:35;;;;;;;6.80;1.63;;;;;;;;;;4950208;28;20407;-53
2021/03/24 13:24:01;;;;;;;5.15;1.00;;;;;;;;;;4962496;28;20038;-56
2021/03/24 13:26:32;;;;;;;7.05;1.17;;;;;;;;;;4963404;28;22935;-53
2021/03/24 13:29:21;;;;;;;7.90;1.30;;;;;;;;;;4964504;28;20121;-55
2021/03/24 13:31:53;;;;;;;9.98;1.23;;;;;;;;;;4963946;28;20042;-56
2021/03/24 13:34:38;;;;;;;10.95;1.50;;;;;;;;;;4962546;28;20039;-54
2021/03/24 13:37:04;;;;;;;5.70;0.88;;;;;;;;;;4961360;28;20047;-55
2021/03/24 13:39:38;;;;;;;9.18;1.00;;;;;;;;;;4961958;28;20082;-51
2021/03/24 13:42:18;;;;;;;6.93;1.00;;;;;;;;;;4963519;28;22066;-56
2021/03/24 13:44:47;;;;;;;11.07;1.15;;;;;;;;;;4961698;28;20061;-57
2021/03/24 13:47:33;;;;;;;7.75;1.42;;;;;;;;;;4962576;28;20047;-54
2021/03/24 13:50:04;;;;;;;4.53;0.85;;;;;;;;;;4957170;28;20577;-54
2021/03/24 13:52:42;;;;;;;8.38;0.95;;;;;;;;;;4961391;28;20166;-55
2021/03/24 13:55:28;;;;;;;7.05;1.10;;;;;;;;;;4961603;28;20089;-56
2021/03/24 13:58:00;;;;;;;6.30;1.20;;;;;;;;;;4959805;28;20565;-52
2021/03/24 14:00:44;;;;;;;5.88;1.10;;;;;;;;;;4961110;28;20101;-55
2021/03/24 14:03:16;;;;;;;14.23;1.88;;;;;;;;;;4962839;28;20043;-54
2021/03/24 14:05:52;;;;;;;11.57;1.83;;;;;;;;;;4961275;28;20046;-54
2021/03/24 14:08:31;;;;;;;7.38;1.05;;;;;;;;;;4961005;28;20129;-52
2021/03/24 14:11:21;;;;;;;5.07;1.10;;;;;;;;;;4960988;28;20133;-54
2021/03/24 14:13:50;;;;;;;6.63;0.98;;;;;;;;;;4960111;28;20662;-53
2021/03/24 14:16:21;;;;;;;5.53;1.20;;;;;;;;;;4959994;28;20476;-56
2021/03/24 14:19:05;;;;;;;11.50;1.27;;;;;;;;;;4961949;28;20409;-56
2021/03/24 14:21:46;;;;;;;9.10;1.05;;;;;;;;;;4960182;28;20507;-54
2021/03/24 14:24:38;;;;;;;6.65;1.20;;;;;;;;;;4958924;28;20050;-53
2021/03/24 14:27:07;;;;;;;7.97;1.10;;;;;;;;;;4959502;28;20047;-56
2021/03/24 14:29:52;;;;;;;9.40;1.20;;;;;;;;;;4960722;28;20042;-53
2021/03/24 14:32:33;;;;;;;4.50;1.10;;;;;;;;;;4960246;28;20077;-55
2021/03/24 14:35:02;;;;;;;4.25;1.10;;;;;;;;;;4959301;28;20038;-53
2021/03/24 14:37:34;;;;;;;5.93;1.15;;;;;;;;;;4960388;28;20123;-54
2021/03/24 14:40:06;;;;;;;6.13;0.95;;;;;;;;;;4965991;28;20701;-53
2021/03/24 14:42:40;;;;;;;8.32;1.20;;;;;;;;;;4964437;28;20105;-52
2021/03/24 14:45:15;;;;;;;11.80;1.38;;;;;;;;;;4962074;28;20484;-54
2021/03/24 14:47:49;;;;;;;6.93;1.00;;;;;;;;;;4963850;28;20047;-53
2021/03/24 14:50:26;;;;;;;4.15;1.15;;;;;;;;;;4966920;28;20043;-54
2021/03/24 14:52:55;;;;;;;12.13;1.50;;;;;;;;;;4965600;28;20054;-53
2021/03/24 14:55:27;;;;;;;9.93;1.65;;;;;;;;;;4964040;28;20057;-53
2021/03/24 14:57:53;;;;;;;8.93;1.30;;;;;;;;;;4966627;28;20062;-54
2021/03/24 15:00:25;;;;;;;10.57;1.60;;;;;;;;;;4963063;28;20117;-51
2021/03/24 15:03:04;;;;;;;4.72;1.10;;;;;;;;;;4952222;28;20064;-53
2021/03/24 15:05:45;;;;;;;5.07;1.20;;;;;;;;;;4954316;28;20102;-53
2021/03/24 15:08:26;;;;;;;9.82;1.20;;;;;;;;;;4965985;28;20516;-50
2021/03/24 15:11:04;;;;;;;7.20;1.08;;;;;;;;;;4964944;28;20117;-54
2021/03/24 15:13:49;;;;;;;5.85;1.10;;;;;;;;;;4967301;28;20043;-55
2021/03/24 15:16:20;;;;;;;4.65;1.13;;;;;;;;;;4965176;28;20052;-55